sensor_id;sensor_type;location;lat;lon;timestamp;P1;durP1;ratioP1;P2;durP2;ratioP2
2680;SDS011;1350;42.134;24.708;2023-05-20T00:00:00;12.30;;;9.27;;
2680;SDS011;1350;42.134;24.708;2023-05-20T00:02:26;14.83;;;10.00;;
2680;SDS011;1350;42.134;24.708;2023-05-20T00:04:53;18.55;;;11.50;;
2680;SDS011;1350;42.134;24.708;2023-05-20T00:07:20;19.07;;;12.03;;
2680;SDS011;1350;42.134;24.708;2023-05-20T00:09:46;17.27;;;11.07;;
2680;SDS011;1350;42.134;24.708;2023-05-20T00:12:13;12.00;;;9.13;;
2680;SDS011;1350;42.134;24.708;2023-05-20T00:14:41;16.17;;;10.40;;
2680;SDS011;1350;42.134;24.708;2023-05-20T00:17:08;15.95;;;10.77;;
2680;SDS011;1350;42.134;24.708;2023-05-20T00:19:35;16.38;;;11.45;;
2680;SDS011;1350;42.134;24.708;2023-05-20T00:22:01;17.17;;;11.13;;
2680;SDS011;1350;42.134;24.708;2023-05-20T00:24:29;15.23;;;12.07;;
2680;SDS011;1350;42.134;24.708;2023-05-20T00:26:58;17.43;;;11.60;;
2680;SDS011;1350;42.134;24.708;2023-05-20T00:29:27;18.15;;;11.00;;
2680;SDS011;1350;42.134;24.708;2023-05-20T00:31:58;17.60;;;11.40;;
2680;SDS011;1350;42.134;24.708;2023-05-20T00:34:24;15.07;;;10.88;;
2680;SDS011;1350;42.134;24.708;2023-05-20T00:36:51;13.70;;;11.03;;
2680;SDS011;1350;42.134;24.708;2023-05-20T00:39:18;13.80;;;10.33;;
2680;SDS011;1350;42.134;24.708;2023-05-20T00:41:44;19.60;;;12.13;;
2680;SDS011;1350;42.134;24.708;2023-05-20T00:44:11;14.73;;;10.00;;
2680;SDS011;1350;42.134;24.708;2023-05-20T00:46:38;14.00;;;10.23;;
2680;SDS011;1350;42.134;24.708;2023-05-20T00:49:06;17.88;;;11.50;;
2680;SDS011;1350;42.134;24.708;2023-05-20T00:51:32;15.27;;;10.90;;
2680;SDS011;1350;42.134;24.708;2023-05-20T00:53:59;16.53;;;11.37;;
2680;SDS011;1350;42.134;24.708;2023-05-20T00:56:27;16.27;;;11.73;;
2680;SDS011;1350;42.134;24.708;2023-05-20T00:58:54;14.93;;;10.50;;
2680;SDS011;1350;42.134;24.708;2023-05-20T01:01:22;22.58;;;12.32;;
2680;SDS011;1350;42.134;24.708;2023-05-20T01:03:49;16.70;;;11.50;;
2680;SDS011;1350;42.134;24.708;2023-05-20T01:06:18;14.70;;;11.50;;
2680;SDS011;1350;42.134;24.708;2023-05-20T01:08:44;16.92;;;13.40;;
2680;SDS011;1350;42.134;24.708;2023-05-20T01:11:14;15.75;;;12.77;;
2680;SDS011;1350;42.134;24.708;2023-05-20T01:13:46;17.98;;;12.80;;
2680;SDS011;1350;42.134;24.708;2023-05-20T01:16:16;19.15;;;11.93;;
2680;SDS011;1350;42.134;24.708;2023-05-20T01:18:44;19.33;;;13.20;;
2680;SDS011;1350;42.134;24.708;2023-05-20T01:21:13;17.27;;;12.95;;
2680;SDS011;1350;42.134;24.708;2023-05-20T01:23:43;16.58;;;13.00;;
2680;SDS011;1350;42.134;24.708;2023-05-20T01:26:10;18.93;;;13.97;;
2680;SDS011;1350;42.134;24.708;2023-05-20T01:28:37;17.23;;;12.93;;
2680;SDS011;1350;42.134;24.708;2023-05-20T01:31:05;19.35;;;13.35;;
2680;SDS011;1350;42.134;24.708;2023-05-20T01:33:37;20.27;;;12.85;;
2680;SDS011;1350;42.134;24.708;2023-05-20T01:36:06;19.77;;;13.57;;
2680;SDS011;1350;42.134;24.708;2023-05-20T01:38:34;18.17;;;13.07;;
2680;SDS011;1350;42.134;24.708;2023-05-20T01:41:04;21.63;;;12.40;;
2680;SDS011;1350;42.134;24.708;2023-05-20T01:43:32;27.57;;;13.90;;
2680;SDS011;1350;42.134;24.708;2023-05-20T01:46:04;18.35;;;13.57;;
2680;SDS011;1350;42.134;24.708;2023-05-20T01:48:31;18.20;;;13.00;;
2680;SDS011;1350;42.134;24.708;2023-05-20T01:50:58;17.35;;;13.68;;
2680;SDS011;1350;42.134;24.708;2023-05-20T01:53:25;19.83;;;13.60;;
2680;SDS011;1350;42.134;24.708;2023-05-20T01:55:52;21.13;;;14.07;;
2680;SDS011;1350;42.134;24.708;2023-05-20T01:58:20;20.27;;;13.23;;
2680;SDS011;1350;42.134;24.708;2023-05-20T02:00:46;18.40;;;13.00;;
2680;SDS011;1350;42.134;24.708;2023-05-20T02:03:13;17.05;;;13.38;;
2680;SDS011;1350;42.134;24.708;2023-05-20T02:05:40;17.00;;;12.80;;
2680;SDS011;1350;42.134;24.708;2023-05-20T02:08:06;15.48;;;12.77;;
2680;SDS011;1350;42.134;24.708;2023-05-20T02:10:33;17.87;;;13.23;;
2680;SDS011;1350;42.134;24.708;2023-05-20T02:13:00;16.70;;;12.50;;
2680;SDS011;1350;42.134;24.708;2023-05-20T02:15:28;19.33;;;13.45;;
2680;SDS011;1350;42.134;24.708;2023-05-20T02:17:55;19.85;;;15.10;;
2680;SDS011;1350;42.134;24.708;2023-05-20T02:20:22;20.05;;;13.10;;
2680;SDS011;1350;42.134;24.708;2023-05-20T02:22:49;18.60;;;14.07;;
2680;SDS011;1350;42.134;24.708;2023-05-20T02:25:16;20.13;;;13.30;;
2680;SDS011;1350;42.134;24.708;2023-05-20T02:27:42;19.13;;;13.18;;
2680;SDS011;1350;42.134;24.708;2023-05-20T02:30:09;22.25;;;14.25;;
2680;SDS011;1350;42.134;24.708;2023-05-20T02:32:38;15.95;;;12.43;;
2680;SDS011;1350;42.134;24.708;2023-05-20T02:35:04;19.98;;;14.68;;
2680;SDS011;1350;42.134;24.708;2023-05-20T02:37:31;22.25;;;12.50;;
2680;SDS011;1350;42.134;24.708;2023-05-20T02:39:58;17.33;;;12.75;;
2680;SDS011;1350;42.134;24.708;2023-05-20T02:42:25;17.75;;;13.55;;
2680;SDS011;1350;42.134;24.708;2023-05-20T02:44:51;23.08;;;14.95;;
2680;SDS011;1350;42.134;24.708;2023-05-20T02:47:20;20.33;;;13.00;;
2680;SDS011;1350;42.134;24.708;2023-05-20T02:49:48;16.48;;;13.00;;
2680;SDS011;1350;42.134;24.708;2023-05-20T02:52:15;19.40;;;13.65;;
2680;SDS011;1350;42.134;24.708;2023-05-20T02:54:41;23.85;;;13.60;;
2680;SDS011;1350;42.134;24.708;2023-05-20T02:57:08;19.25;;;14.15;;
2680;SDS011;1350;42.134;24.708;2023-05-20T02:59:35;21.95;;;14.93;;
2680;SDS011;1350;42.134;24.708;2023-05-20T03:02:01;16.80;;;12.93;;
2680;SDS011;1350;42.134;24.708;2023-05-20T03:04:28;19.13;;;12.13;;
2680;SDS011;1350;42.134;24.708;2023-05-20T03:06:57;17.70;;;12.68;;
2680;SDS011;1350;42.134;24.708;2023-05-20T03:09:23;17.92;;;12.38;;
2680;SDS011;1350;42.134;24.708;2023-05-20T03:11:50;20.08;;;14.30;;
2680;SDS011;1350;42.134;24.708;2023-05-20T03:14:17;19.70;;;12.68;;
2680;SDS011;1350;42.134;24.708;2023-05-20T03:16:43;16.80;;;13.40;;
2680;SDS011;1350;42.134;24.708;2023-05-20T03:19:10;19.88;;;12.95;;
2680;SDS011;1350;42.134;24.708;2023-05-20T03:21:37;22.60;;;13.27;;
2680;SDS011;1350;42.134;24.708;2023-05-20T03:24:05;20.70;;;13.05;;
2680;SDS011;1350;42.134;24.708;2023-05-20T03:26:32;17.20;;;12.90;;
2680;SDS011;1350;42.134;24.708;2023-05-20T03:29:01;20.13;;;13.43;;
2680;SDS011;1350;42.134;24.708;2023-05-20T03:31:28;16.35;;;11.85;;
2680;SDS011;1350;42.134;24.708;2023-05-20T03:33:55;17.45;;;12.25;;
2680;SDS011;1350;42.134;24.708;2023-05-20T03:36:21;16.55;;;11.88;;
2680;SDS011;1350;42.134;24.708;2023-05-20T03:38:48;15.68;;;11.82;;
2680;SDS011;1350;42.134;24.708;2023-05-20T03:41:16;19.98;;;13.10;;
2680;SDS011;1350;42.134;24.708;2023-05-20T03:43:43;16.17;;;11.43;;
2680;SDS011;1350;42.134;24.708;2023-05-20T03:46:09;25.55;;;14.10;;
2680;SDS011;1350;42.134;24.708;2023-05-20T03:48:36;20.48;;;12.50;;
2680;SDS011;1350;42.134;24.708;2023-05-20T03:51:03;16.77;;;12.52;;
2680;SDS011;1350;42.134;24.708;2023-05-20T03:53:29;19.42;;;12.32;;
2680;SDS011;1350;42.134;24.708;2023-05-20T03:55:56;18.95;;;12.93;;
2680;SDS011;1350;42.134;24.708;2023-05-20T03:58:24;22.30;;;14.50;;
2680;SDS011;1350;42.134;24.708;2023-05-20T04:00:53;16.55;;;11.88;;
2680;SDS011;1350;42.134;24.708;2023-05-20T04:03:20;17.58;;;11.93;;
2680;SDS011;1350;42.134;24.708;2023-05-20T04:05:46;21.23;;;12.40;;
2680;SDS011;1350;42.134;24.708;2023-05-20T04:08:13;16.33;;;11.75;;
2680;SDS011;1350;42.134;24.708;2023-05-20T04:10:40;18.33;;;12.70;;
2680;SDS011;1350;42.134;24.708;2023-05-20T04:13:07;17.15;;;11.15;;
2680;SDS011;1350;42.134;24.708;2023-05-20T04:15:36;19.40;;;12.43;;
2680;SDS011;1350;42.134;24.708;2023-05-20T04:18:03;22.73;;;11.20;;
2680;SDS011;1350;42.134;24.708;2023-05-20T04:20:30;16.70;;;11.87;;
2680;SDS011;1350;42.134;24.708;2023-05-20T04:22:57;19.10;;;12.20;;
2680;SDS011;1350;42.134;24.708;2023-05-20T04:25:24;17.13;;;11.27;;
2680;SDS011;1350;42.134;24.708;2023-05-20T04:27:51;13.53;;;10.77;;
2680;SDS011;1350;42.134;24.708;2023-05-20T04:30:18;17.33;;;10.67;;
2680;SDS011;1350;42.134;24.708;2023-05-20T04:32:47;14.37;;;11.13;;
2680;SDS011;1350;42.134;24.708;2023-05-20T04:35:15;16.67;;;10.43;;
2680;SDS011;1350;42.134;24.708;2023-05-20T04:37:42;16.57;;;11.60;;
2680;SDS011;1350;42.134;24.708;2023-05-20T04:40:12;15.97;;;11.47;;
2680;SDS011;1350;42.134;24.708;2023-05-20T04:42:39;24.93;;;11.10;;
2680;SDS011;1350;42.134;24.708;2023-05-20T04:45:06;19.60;;;11.90;;
2680;SDS011;1350;42.134;24.708;2023-05-20T04:47:33;17.27;;;11.80;;
2680;SDS011;1350;42.134;24.708;2023-05-20T04:50:04;14.80;;;10.30;;
2680;SDS011;1350;42.134;24.708;2023-05-20T04:52:34;15.30;;;11.60;;
2680;SDS011;1350;42.134;24.708;2023-05-20T04:55:01;18.40;;;11.50;;
2680;SDS011;1350;42.134;24.708;2023-05-20T04:57:28;36.70;;;14.00;;
2680;SDS011;1350;42.134;24.708;2023-05-20T04:59:55;26.40;;;12.17;;
2680;SDS011;1350;42.134;24.708;2023-05-20T05:02:23;15.63;;;11.03;;
2680;SDS011;1350;42.134;24.708;2023-05-20T05:04:49;17.50;;;11.20;;
2680;SDS011;1350;42.134;24.708;2023-05-20T05:07:18;13.67;;;10.73;;
2680;SDS011;1350;42.134;24.708;2023-05-20T05:09:44;19.23;;;11.50;;
2680;SDS011;1350;42.134;24.708;2023-05-20T05:12:11;16.20;;;10.90;;
2680;SDS011;1350;42.134;24.708;2023-05-20T05:14:38;15.40;;;9.87;;
2680;SDS011;1350;42.134;24.708;2023-05-20T05:17:05;18.20;;;10.70;;
2680;SDS011;1350;42.134;24.708;2023-05-20T05:19:31;51.23;;;12.93;;
2680;SDS011;1350;42.134;24.708;2023-05-20T05:21:58;16.23;;;12.10;;
2680;SDS011;1350;42.134;24.708;2023-05-20T05:24:26;17.00;;;11.23;;
2680;SDS011;1350;42.134;24.708;2023-05-20T05:26:53;25.63;;;10.20;;
2680;SDS011;1350;42.134;24.708;2023-05-20T05:29:19;19.57;;;11.73;;
2680;SDS011;1350;42.134;24.708;2023-05-20T05:31:46;13.60;;;9.37;;
2680;SDS011;1350;42.134;24.708;2023-05-20T05:34:13;17.60;;;10.60;;
2680;SDS011;1350;42.134;24.708;2023-05-20T05:36:40;14.87;;;10.30;;
2680;SDS011;1350;42.134;24.708;2023-05-20T05:39:07;17.43;;;10.20;;
2680;SDS011;1350;42.134;24.708;2023-05-20T05:41:35;31.03;;;12.37;;
2680;SDS011;1350;42.134;24.708;2023-05-20T05:44:04;14.73;;;10.77;;
2680;SDS011;1350;42.134;24.708;2023-05-20T05:46:31;13.70;;;10.30;;
2680;SDS011;1350;42.134;24.708;2023-05-20T05:48:58;15.33;;;9.80;;
2680;SDS011;1350;42.134;24.708;2023-05-20T05:51:25;15.67;;;11.13;;
2680;SDS011;1350;42.134;24.708;2023-05-20T05:53:53;28.53;;;20.07;;
2680;SDS011;1350;42.134;24.708;2023-05-20T05:56:19;19.90;;;16.50;;
2680;SDS011;1350;42.134;24.708;2023-05-20T05:58:48;18.53;;;12.57;;
2680;SDS011;1350;42.134;24.708;2023-05-20T06:01:14;15.37;;;10.80;;
2680;SDS011;1350;42.134;24.708;2023-05-20T06:03:41;22.20;;;13.17;;
2680;SDS011;1350;42.134;24.708;2023-05-20T06:06:08;17.27;;;10.60;;
2680;SDS011;1350;42.134;24.708;2023-05-20T06:08:34;17.23;;;11.67;;
2680;SDS011;1350;42.134;24.708;2023-05-20T06:11:01;16.50;;;11.07;;
2680;SDS011;1350;42.134;24.708;2023-05-20T06:13:28;17.20;;;11.27;;
2680;SDS011;1350;42.134;24.708;2023-05-20T06:15:56;15.53;;;9.13;;
2680;SDS011;1350;42.134;24.708;2023-05-20T06:18:23;19.60;;;10.83;;
2680;SDS011;1350;42.134;24.708;2023-05-20T06:20:53;21.70;;;11.80;;
2680;SDS011;1350;42.134;24.708;2023-05-20T06:23:20;14.63;;;9.67;;
2680;SDS011;1350;42.134;24.708;2023-05-20T06:25:47;16.07;;;9.90;;
2680;SDS011;1350;42.134;24.708;2023-05-20T06:28:14;15.03;;;9.57;;
2680;SDS011;1350;42.134;24.708;2023-05-20T06:30:40;16.50;;;10.30;;
2680;SDS011;1350;42.134;24.708;2023-05-20T06:33:09;17.70;;;8.90;;
2680;SDS011;1350;42.134;24.708;2023-05-20T06:35:36;30.00;;;11.00;;
2680;SDS011;1350;42.134;24.708;2023-05-20T06:38:02;14.47;;;9.57;;
2680;SDS011;1350;42.134;24.708;2023-05-20T06:40:30;17.87;;;13.00;;
2680;SDS011;1350;42.134;24.708;2023-05-20T06:42:56;16.60;;;10.27;;
2680;SDS011;1350;42.134;24.708;2023-05-20T06:45:23;23.07;;;11.20;;
2680;SDS011;1350;42.134;24.708;2023-05-20T06:47:50;19.30;;;8.50;;
2680;SDS011;1350;42.134;24.708;2023-05-20T06:50:19;10.20;;;8.30;;
2680;SDS011;1350;42.134;24.708;2023-05-20T06:52:46;10.50;;;7.13;;
2680;SDS011;1350;42.134;24.708;2023-05-20T06:55:13;15.63;;;9.23;;
2680;SDS011;1350;42.134;24.708;2023-05-20T06:57:40;14.73;;;9.10;;
2680;SDS011;1350;42.134;24.708;2023-05-20T07:00:07;14.10;;;7.77;;
2680;SDS011;1350;42.134;24.708;2023-05-20T07:02:34;13.20;;;8.23;;
2680;SDS011;1350;42.134;24.708;2023-05-20T07:05:01;10.20;;;7.50;;
2680;SDS011;1350;42.134;24.708;2023-05-20T07:07:29;15.50;;;8.60;;
2680;SDS011;1350;42.134;24.708;2023-05-20T07:09:56;11.77;;;8.33;;
2680;SDS011;1350;42.134;24.708;2023-05-20T07:12:23;17.60;;;9.30;;
2680;SDS011;1350;42.134;24.708;2023-05-20T07:14:50;11.23;;;8.20;;
2680;SDS011;1350;42.134;24.708;2023-05-20T07:17:16;15.33;;;8.50;;
2680;SDS011;1350;42.134;24.708;2023-05-20T07:19:43;15.00;;;9.00;;
2680;SDS011;1350;42.134;24.708;2023-05-20T07:22:10;12.57;;;8.50;;
2680;SDS011;1350;42.134;24.708;2023-05-20T07:24:38;11.67;;;9.30;;
2680;SDS011;1350;42.134;24.708;2023-05-20T07:27:05;19.00;;;9.70;;
2680;SDS011;1350;42.134;24.708;2023-05-20T07:29:32;22.77;;;15.13;;
2680;SDS011;1350;42.134;24.708;2023-05-20T07:31:59;13.30;;;10.90;;
2680;SDS011;1350;42.134;24.708;2023-05-20T07:34:26;17.23;;;9.23;;
2680;SDS011;1350;42.134;24.708;2023-05-20T07:36:53;17.40;;;12.00;;
2680;SDS011;1350;42.134;24.708;2023-05-20T07:39:19;15.80;;;9.60;;
2680;SDS011;1350;42.134;24.708;2023-05-20T07:41:47;15.13;;;9.17;;
2680;SDS011;1350;42.134;24.708;2023-05-20T07:44:14;12.73;;;8.20;;
2680;SDS011;1350;42.134;24.708;2023-05-20T07:46:42;12.20;;;7.90;;
2680;SDS011;1350;42.134;24.708;2023-05-20T07:49:09;12.00;;;8.40;;
2680;SDS011;1350;42.134;24.708;2023-05-20T07:51:36;12.73;;;7.90;;
2680;SDS011;1350;42.134;24.708;2023-05-20T07:54:03;14.83;;;8.63;;
2680;SDS011;1350;42.134;24.708;2023-05-20T07:56:30;16.97;;;8.93;;
2680;SDS011;1350;42.134;24.708;2023-05-20T07:58:58;10.90;;;7.60;;
2680;SDS011;1350;42.134;24.708;2023-05-20T08:01:27;18.07;;;8.60;;
2680;SDS011;1350;42.134;24.708;2023-05-20T08:03:54;11.33;;;8.90;;
2680;SDS011;1350;42.134;24.708;2023-05-20T08:06:21;14.00;;;8.13;;
2680;SDS011;1350;42.134;24.708;2023-05-20T08:08:49;13.20;;;8.87;;
2680;SDS011;1350;42.134;24.708;2023-05-20T08:11:18;12.03;;;8.43;;
2680;SDS011;1350;42.134;24.708;2023-05-20T08:13:45;12.70;;;8.63;;
2680;SDS011;1350;42.134;24.708;2023-05-20T08:16:13;9.67;;;7.13;;
2680;SDS011;1350;42.134;24.708;2023-05-20T08:18:40;14.30;;;8.30;;
2680;SDS011;1350;42.134;24.708;2023-05-20T08:21:07;12.37;;;9.13;;
2680;SDS011;1350;42.134;24.708;2023-05-20T08:23:34;10.60;;;7.53;;
2680;SDS011;1350;42.134;24.708;2023-05-20T08:26:01;19.07;;;9.07;;
2680;SDS011;1350;42.134;24.708;2023-05-20T08:28:27;12.47;;;7.90;;
2680;SDS011;1350;42.134;24.708;2023-05-20T08:30:54;10.20;;;7.87;;
2680;SDS011;1350;42.134;24.708;2023-05-20T08:33:23;10.63;;;8.37;;
2680;SDS011;1350;42.134;24.708;2023-05-20T08:35:50;12.87;;;8.63;;
2680;SDS011;1350;42.134;24.708;2023-05-20T08:38:16;12.33;;;8.40;;
2680;SDS011;1350;42.134;24.708;2023-05-20T08:40:43;10.13;;;8.43;;
2680;SDS011;1350;42.134;24.708;2023-05-20T08:43:10;10.57;;;7.20;;
2680;SDS011;1350;42.134;24.708;2023-05-20T08:45:37;12.50;;;8.10;;
2680;SDS011;1350;42.134;24.708;2023-05-20T08:48:04;10.80;;;7.50;;
2680;SDS011;1350;42.134;24.708;2023-05-20T08:50:32;11.00;;;8.63;;
2680;SDS011;1350;42.134;24.708;2023-05-20T08:52:59;13.47;;;9.03;;
2680;SDS011;1350;42.134;24.708;2023-05-20T08:55:28;12.50;;;9.50;;
2680;SDS011;1350;42.134;24.708;2023-05-20T08:58:02;11.50;;;8.57;;
2680;SDS011;1350;42.134;24.708;2023-05-20T09:00:29;9.80;;;7.40;;
2680;SDS011;1350;42.134;24.708;2023-05-20T09:02:57;12.50;;;8.70;;
2680;SDS011;1350;42.134;24.708;2023-05-20T09:05:24;16.77;;;9.03;;
2680;SDS011;1350;42.134;24.708;2023-05-20T09:08:02;11.07;;;8.07;;
2680;SDS011;1350;42.134;24.708;2023-05-20T09:10:30;11.80;;;8.43;;
2680;SDS011;1350;42.134;24.708;2023-05-20T09:12:58;15.13;;;8.93;;
2680;SDS011;1350;42.134;24.708;2023-05-20T09:15:25;13.10;;;7.27;;
2680;SDS011;1350;42.134;24.708;2023-05-20T09:17:52;12.30;;;8.30;;
2680;SDS011;1350;42.134;24.708;2023-05-20T09:20:20;15.23;;;8.00;;
2680;SDS011;1350;42.134;24.708;2023-05-20T09:22:50;11.30;;;8.03;;
2680;SDS011;1350;42.134;24.708;2023-05-20T09:25:19;13.07;;;9.27;;
2680;SDS011;1350;42.134;24.708;2023-05-20T09:27:47;22.90;;;8.83;;
2680;SDS011;1350;42.134;24.708;2023-05-20T09:30:17;15.10;;;8.37;;
2680;SDS011;1350;42.134;24.708;2023-05-20T09:32:44;10.30;;;7.93;;
2680;SDS011;1350;42.134;24.708;2023-05-20T09:35:11;13.53;;;8.63;;
2680;SDS011;1350;42.134;24.708;2023-05-20T09:37:39;9.97;;;7.17;;
2680;SDS011;1350;42.134;24.708;2023-05-20T09:40:08;12.53;;;7.03;;
2680;SDS011;1350;42.134;24.708;2023-05-20T09:42:40;13.93;;;8.50;;
2680;SDS011;1350;42.134;24.708;2023-05-20T09:45:09;13.90;;;8.10;;
2680;SDS011;1350;42.134;24.708;2023-05-20T09:47:36;13.97;;;9.00;;
2680;SDS011;1350;42.134;24.708;2023-05-20T09:50:05;11.43;;;7.90;;
2680;SDS011;1350;42.134;24.708;2023-05-20T09:52:34;11.30;;;8.23;;
2680;SDS011;1350;42.134;24.708;2023-05-20T09:55:02;13.10;;;8.97;;
2680;SDS011;1350;42.134;24.708;2023-05-20T09:57:33;13.30;;;7.97;;
2680;SDS011;1350;42.134;24.708;2023-05-20T10:00:02;16.90;;;8.30;;
2680;SDS011;1350;42.134;24.708;2023-05-20T10:02:30;16.17;;;8.20;;
2680;SDS011;1350;42.134;24.708;2023-05-20T10:04:57;11.20;;;8.27;;
2680;SDS011;1350;42.134;24.708;2023-05-20T10:07:39;12.57;;;6.93;;
2680;SDS011;1350;42.134;24.708;2023-05-20T10:10:26;9.87;;;7.03;;
2680;SDS011;1350;42.134;24.708;2023-05-20T10:13:01;13.60;;;8.70;;
2680;SDS011;1350;42.134;24.708;2023-05-20T10:15:41;12.23;;;7.80;;
2680;SDS011;1350;42.134;24.708;2023-05-20T10:18:29;13.33;;;7.70;;
2680;SDS011;1350;42.134;24.708;2023-05-20T10:21:13;11.57;;;8.33;;
2680;SDS011;1350;42.134;24.708;2023-05-20T10:23:40;16.20;;;8.33;;
2680;SDS011;1350;42.134;24.708;2023-05-20T10:26:07;13.07;;;7.90;;
2680;SDS011;1350;42.134;24.708;2023-05-20T10:28:35;12.20;;;8.67;;
2680;SDS011;1350;42.134;24.708;2023-05-20T10:31:13;12.07;;;7.73;;
2680;SDS011;1350;42.134;24.708;2023-05-20T10:33:42;19.20;;;10.53;;
2680;SDS011;1350;42.134;24.708;2023-05-20T10:36:09;13.53;;;9.17;;
2680;SDS011;1350;42.134;24.708;2023-05-20T10:38:50;12.83;;;8.23;;
2680;SDS011;1350;42.134;24.708;2023-05-20T10:41:20;11.93;;;8.80;;
2680;SDS011;1350;42.134;24.708;2023-05-20T10:43:58;11.30;;;8.07;;
2680;SDS011;1350;42.134;24.708;2023-05-20T10:46:28;17.63;;;9.57;;
2680;SDS011;1350;42.134;24.708;2023-05-20T10:48:56;12.27;;;8.40;;
2680;SDS011;1350;42.134;24.708;2023-05-20T10:51:23;13.13;;;7.37;;
2680;SDS011;1350;42.134;24.708;2023-05-20T10:53:53;23.63;;;9.83;;
2680;SDS011;1350;42.134;24.708;2023-05-20T10:56:21;9.33;;;6.90;;
2680;SDS011;1350;42.134;24.708;2023-05-20T10:58:49;12.80;;;8.13;;
2680;SDS011;1350;42.134;24.708;2023-05-20T11:01:16;10.90;;;7.73;;
2680;SDS011;1350;42.134;24.708;2023-05-20T11:03:45;13.03;;;7.83;;
2680;SDS011;1350;42.134;24.708;2023-05-20T11:06:14;14.33;;;8.13;;
2680;SDS011;1350;42.134;24.708;2023-05-20T11:08:42;13.37;;;8.87;;
2680;SDS011;1350;42.134;24.708;2023-05-20T11:11:09;11.80;;;6.70;;
2680;SDS011;1350;42.134;24.708;2023-05-20T11:13:36;11.60;;;7.80;;
2680;SDS011;1350;42.134;24.708;2023-05-20T11:16:03;9.77;;;7.37;;
2680;SDS011;1350;42.134;24.708;2023-05-20T11:18:30;13.97;;;8.20;;
2680;SDS011;1350;42.134;24.708;2023-05-20T11:21:01;12.07;;;8.30;;
2680;SDS011;1350;42.134;24.708;2023-05-20T11:23:28;13.53;;;7.00;;
2680;SDS011;1350;42.134;24.708;2023-05-20T11:25:55;9.60;;;6.33;;
2680;SDS011;1350;42.134;24.708;2023-05-20T11:28:22;11.10;;;7.40;;
2680;SDS011;1350;42.134;24.708;2023-05-20T11:30:50;13.50;;;6.77;;
2680;SDS011;1350;42.134;24.708;2023-05-20T11:33:18;10.50;;;6.23;;
2680;SDS011;1350;42.134;24.708;2023-05-20T11:35:45;13.70;;;10.37;;
2680;SDS011;1350;42.134;24.708;2023-05-20T11:38:15;9.93;;;8.07;;
2680;SDS011;1350;42.134;24.708;2023-05-20T11:40:42;17.27;;;15.10;;
2680;SDS011;1350;42.134;24.708;2023-05-20T11:43:10;9.73;;;6.40;;
2680;SDS011;1350;42.134;24.708;2023-05-20T11:45:38;9.77;;;6.07;;
2680;SDS011;1350;42.134;24.708;2023-05-20T11:48:06;10.37;;;6.67;;
2680;SDS011;1350;42.134;24.708;2023-05-20T11:50:34;11.50;;;7.93;;
2680;SDS011;1350;42.134;24.708;2023-05-20T11:53:03;14.60;;;11.37;;
2680;SDS011;1350;42.134;24.708;2023-05-20T11:55:32;23.33;;;17.40;;
2680;SDS011;1350;42.134;24.708;2023-05-20T11:57:59;9.00;;;6.23;;
2680;SDS011;1350;42.134;24.708;2023-05-20T12:00:27;10.10;;;6.23;;
2680;SDS011;1350;42.134;24.708;2023-05-20T12:02:54;13.07;;;6.50;;
2680;SDS011;1350;42.134;24.708;2023-05-20T12:05:20;11.03;;;7.27;;
2680;SDS011;1350;42.134;24.708;2023-05-20T12:07:47;14.67;;;11.67;;
2680;SDS011;1350;42.134;24.708;2023-05-20T12:10:14;14.70;;;10.80;;
2680;SDS011;1350;42.134;24.708;2023-05-20T12:12:42;10.47;;;6.77;;
2680;SDS011;1350;42.134;24.708;2023-05-20T12:15:09;11.57;;;8.07;;
2680;SDS011;1350;42.134;24.708;2023-05-20T12:17:43;12.77;;;7.70;;
2680;SDS011;1350;42.134;24.708;2023-05-20T12:20:12;10.07;;;7.17;;
2680;SDS011;1350;42.134;24.708;2023-05-20T12:22:40;12.47;;;7.03;;
2680;SDS011;1350;42.134;24.708;2023-05-20T12:25:07;16.10;;;6.40;;
2680;SDS011;1350;42.134;24.708;2023-05-20T12:27:36;10.00;;;6.27;;
2680;SDS011;1350;42.134;24.708;2023-05-20T12:30:04;11.80;;;6.80;;
2680;SDS011;1350;42.134;24.708;2023-05-20T12:32:33;10.83;;;8.17;;
2680;SDS011;1350;42.134;24.708;2023-05-20T12:35:00;12.07;;;7.27;;
2680;SDS011;1350;42.134;24.708;2023-05-20T12:37:27;11.33;;;6.80;;
2680;SDS011;1350;42.134;24.708;2023-05-20T12:39:54;14.90;;;8.23;;
2680;SDS011;1350;42.134;24.708;2023-05-20T12:42:20;10.50;;;7.00;;
2680;SDS011;1350;42.134;24.708;2023-05-20T12:44:47;10.67;;;7.10;;
2680;SDS011;1350;42.134;24.708;2023-05-20T12:47:15;10.73;;;6.30;;
2680;SDS011;1350;42.134;24.708;2023-05-20T12:49:42;10.30;;;6.90;;
2680;SDS011;1350;42.134;24.708;2023-05-20T12:52:09;9.90;;;7.40;;
2680;SDS011;1350;42.134;24.708;2023-05-20T12:54:35;10.77;;;7.93;;
2680;SDS011;1350;42.134;24.708;2023-05-20T12:57:02;9.60;;;6.50;;
2680;SDS011;1350;42.134;24.708;2023-05-20T12:59:29;10.10;;;6.60;;
2680;SDS011;1350;42.134;24.708;2023-05-20T13:01:56;10.80;;;7.53;;
2680;SDS011;1350;42.134;24.708;2023-05-20T13:04:24;11.47;;;7.43;;
2680;SDS011;1350;42.134;24.708;2023-05-20T13:06:51;11.03;;;7.33;;
2680;SDS011;1350;42.134;24.708;2023-05-20T13:09:18;13.07;;;7.53;;
2680;SDS011;1350;42.134;24.708;2023-05-20T13:11:45;11.63;;;7.83;;
2680;SDS011;1350;42.134;24.708;2023-05-20T13:14:11;11.40;;;7.30;;
2680;SDS011;1350;42.134;24.708;2023-05-20T13:16:38;13.20;;;7.50;;
2680;SDS011;1350;42.134;24.708;2023-05-20T13:19:05;11.23;;;7.10;;
2680;SDS011;1350;42.134;24.708;2023-05-20T13:21:34;9.00;;;6.97;;
2680;SDS011;1350;42.134;24.708;2023-05-20T13:24:01;10.07;;;7.10;;
2680;SDS011;1350;42.134;24.708;2023-05-20T13:26:28;11.43;;;7.00;;
2680;SDS011;1350;42.134;24.708;2023-05-20T13:28:55;10.63;;;7.03;;
2680;SDS011;1350;42.134;24.708;2023-05-20T13:31:22;10.60;;;7.27;;
2680;SDS011;1350;42.134;24.708;2023-05-20T13:33:48;9.83;;;6.90;;
2680;SDS011;1350;42.134;24.708;2023-05-20T13:36:17;12.73;;;7.60;;
2680;SDS011;1350;42.134;24.708;2023-05-20T13:38:45;38.07;;;34.07;;
2680;SDS011;1350;42.134;24.708;2023-05-20T13:41:12;12.80;;;9.93;;
2680;SDS011;1350;42.134;24.708;2023-05-20T13:43:38;10.90;;;6.60;;
2680;SDS011;1350;42.134;24.708;2023-05-20T13:46:06;11.03;;;6.30;;
2680;SDS011;1350;42.134;24.708;2023-05-20T13:48:33;10.20;;;6.47;;
2680;SDS011;1350;42.134;24.708;2023-05-20T13:50:59;12.83;;;6.27;;
2680;SDS011;1350;42.134;24.708;2023-05-20T13:53:27;8.67;;;5.77;;
2680;SDS011;1350;42.134;24.708;2023-05-20T13:55:55;10.07;;;6.90;;
2680;SDS011;1350;42.134;24.708;2023-05-20T13:58:22;10.30;;;6.00;;
2680;SDS011;1350;42.134;24.708;2023-05-20T14:00:48;10.50;;;5.83;;
2680;SDS011;1350;42.134;24.708;2023-05-20T14:03:16;11.10;;;5.40;;
2680;SDS011;1350;42.134;24.708;2023-05-20T14:05:42;17.23;;;6.20;;
2680;SDS011;1350;42.134;24.708;2023-05-20T14:08:11;10.03;;;6.40;;
2680;SDS011;1350;42.134;24.708;2023-05-20T14:10:37;9.40;;;5.67;;
2680;SDS011;1350;42.134;24.708;2023-05-20T14:13:06;13.60;;;6.23;;
2680;SDS011;1350;42.134;24.708;2023-05-20T14:15:34;15.90;;;10.53;;
2680;SDS011;1350;42.134;24.708;2023-05-20T14:18:01;9.37;;;6.23;;
2680;SDS011;1350;42.134;24.708;2023-05-20T14:20:28;11.13;;;7.50;;
2680;SDS011;1350;42.134;24.708;2023-05-20T14:22:55;11.37;;;5.77;;
2680;SDS011;1350;42.134;24.708;2023-05-20T14:25:24;11.30;;;6.70;;
2680;SDS011;1350;42.134;24.708;2023-05-20T14:27:51;11.97;;;5.60;;
2680;SDS011;1350;42.134;24.708;2023-05-20T14:30:20;13.53;;;8.40;;
2680;SDS011;1350;42.134;24.708;2023-05-20T14:32:46;13.37;;;6.67;;
2680;SDS011;1350;42.134;24.708;2023-05-20T14:35:13;9.83;;;6.33;;
2680;SDS011;1350;42.134;24.708;2023-05-20T14:37:40;11.60;;;6.37;;
2680;SDS011;1350;42.134;24.708;2023-05-20T14:40:07;11.53;;;6.57;;
2680;SDS011;1350;42.134;24.708;2023-05-20T14:42:35;11.80;;;5.77;;
2680;SDS011;1350;42.134;24.708;2023-05-20T14:45:02;9.80;;;6.10;;